createdAt,value
2018-02-18T00:00:14.513Z,91.93
2018-02-18T00:01:14.495Z,91.89
2018-02-18T00:02:14.488Z,91.89
2018-02-18T00:03:14.520Z,91.89
2018-02-18T00:04:14.505Z,92
2018-02-18T00:05:14.577Z,91.93
2018-02-18T00:06:14.534Z,91.93
2018-02-18T00:07:14.508Z,91.73
2018-02-18T00:08:14.517Z,91.74
2018-02-18T00:09:14.558Z,91.5
2018-02-18T00:10:14.700Z,91.63
2018-02-18T00:11:14.681Z,91.79
2018-02-18T00:12:14.693Z,91.84
2018-02-18T00:13:14.520Z,91.89
2018-02-18T00:14:14.687Z,91.51
2018-02-18T00:15:14.703Z,91.63
2018-02-18T00:16:14.699Z,91.92
2018-02-18T00:17:14.527Z,91.95
2018-02-18T00:18:14.537Z,91.98
2018-02-18T00:19:14.537Z,92.05
2018-02-18T00:20:14.562Z,91.95
2018-02-18T00:21:14.538Z,91.92
2018-02-18T00:22:14.535Z,91.63
2018-02-18T00:23:14.539Z,91.74
2018-02-18T00:24:14.556Z,91.71
2018-02-18T00:25:14.564Z,91.78
2018-02-18T00:26:14.555Z,91.87
2018-02-18T00:27:14.556Z,91.98
2018-02-18T00:28:14.557Z,91.9
2018-02-18T00:29:14.560Z,91.73
2018-02-18T00:30:15.126Z,91.24
2018-02-18T00:31:14.565Z,91.37
2018-02-18T00:32:14.573Z,91.62
2018-02-18T00:33:14.565Z,92
2018-02-18T00:34:14.567Z,91.73
2018-02-18T00:35:14.595Z,91.74
2018-02-18T00:36:14.572Z,91.56
2018-02-18T00:37:14.575Z,92.05
2018-02-18T00:38:14.581Z,92.14
2018-02-18T00:39:14.585Z,92.61
2018-02-18T00:40:14.639Z,92.38
2018-02-18T00:41:14.606Z,92.19
2018-02-18T00:42:14.624Z,92.2
2018-02-18T00:43:14.609Z,92.13
2018-02-18T00:44:14.618Z,92.05
2018-02-18T00:45:14.620Z,92.06
2018-02-18T00:46:14.623Z,92.06
2018-02-18T00:47:14.666Z,91.98
2018-02-18T00:48:14.635Z,91.92
2018-02-18T00:49:14.637Z,91.75
2018-02-18T00:50:14.637Z,91.47
2018-02-18T00:51:14.638Z,91.53
2018-02-18T00:52:14.650Z,91.6
2018-02-18T00:53:14.658Z,91.73
2018-02-18T00:54:14.806Z,91.81
2018-02-18T00:55:14.795Z,91.51
2018-02-18T00:56:14.651Z,91.26
2018-02-18T00:57:14.659Z,91.33
2018-02-18T00:58:14.837Z,91.3
2018-02-18T00:59:14.839Z,91.62
2018-02-18T01:00:14.825Z,91.81
2018-02-18T01:01:14.681Z,91.71
2018-02-18T01:02:14.681Z,91.41
2018-02-18T01:03:14.675Z,91.31
2018-02-18T01:04:14.701Z,91.59
2018-02-18T01:05:14.839Z,91.65
2018-02-18T01:06:14.840Z,91.73
2018-02-18T01:07:14.689Z,91.71
2018-02-18T01:08:14.687Z,91.74
2018-02-18T01:09:14.865Z,91.66
2018-02-18T01:10:14.877Z,91.68
2018-02-18T01:11:14.859Z,91.65
2018-02-18T01:12:14.865Z,91.71
2018-02-18T01:13:14.707Z,91.47
2018-02-18T01:14:14.874Z,91.42
2018-02-18T01:15:15.030Z,91.2
2018-02-18T01:16:14.880Z,91.29
2018-02-18T01:17:14.884Z,91.3
2018-02-18T01:18:14.894Z,91.25
2018-02-18T01:19:14.736Z,91.04
2018-02-18T01:20:14.756Z,90.8
2018-02-18T01:21:14.743Z,90.7
2018-02-18T01:22:14.748Z,90.86
2018-02-18T01:23:14.745Z,90.83
2018-02-18T01:24:14.751Z,91.04
2018-02-18T01:25:14.772Z,91.11
2018-02-18T01:26:14.743Z,91.2
2018-02-18T01:27:14.756Z,91.22
2018-02-18T01:28:14.917Z,91.19
2018-02-18T01:29:14.764Z,91.21
2018-02-18T01:30:14.756Z,91.27
2018-02-18T01:31:14.928Z,91.25
2018-02-18T01:32:14.769Z,91.11
2018-02-18T01:33:14.774Z,91.2
2018-02-18T01:34:14.781Z,91.25
2018-02-18T01:35:14.775Z,91.23
2018-02-18T01:36:14.962Z,91.01
2018-02-18T01:37:15.053Z,90.68
2018-02-18T01:38:14.795Z,90.81
2018-02-18T01:39:14.794Z,90.96
2018-02-18T01:40:14.801Z,90.93
2018-02-18T01:41:14.804Z,90.83
2018-02-18T01:42:14.833Z,90.81
2018-02-18T01:43:14.831Z,90.92
2018-02-18T01:44:14.817Z,90.96
2018-02-18T01:45:14.823Z,91.06
2018-02-18T01:46:14.822Z,91.09
2018-02-18T01:47:15.040Z,90.76
2018-02-18T01:48:14.834Z,90.6
2018-02-18T01:49:14.836Z,90.73
2018-02-18T01:50:14.843Z,90.51
2018-02-18T01:51:14.852Z,90.74
2018-02-18T01:52:14.868Z,91.08
2018-02-18T01:53:14.842Z,90.51
2018-02-18T01:54:14.842Z,90.38
2018-02-18T01:55:14.849Z,90.47
2018-02-18T01:56:14.856Z,90.34
2018-02-18T01:57:14.877Z,90.52
2018-02-18T01:58:14.854Z,90.26
2018-02-18T01:59:14.861Z,90.35
2018-02-18T02:00:14.869Z,90.52
2018-02-18T02:01:14.873Z,90.6
2018-02-18T02:02:14.998Z,90.64
2018-02-18T02:03:14.881Z,90.75
2018-02-18T02:04:14.877Z,90.68
2018-02-18T02:05:15.042Z,90.73
2018-02-18T02:06:15.048Z,90.82
2018-02-18T02:07:15.387Z,90.82
2018-02-18T02:08:15.050Z,90.65
2018-02-18T02:09:15.053Z,90.73
2018-02-18T02:10:15.084Z,90.9
2018-02-18T02:11:15.071Z,90.89
2018-02-18T02:12:15.096Z,90.89
2018-02-18T02:13:15.073Z,90.88
2018-02-18T02:14:14.927Z,90.57
2018-02-18T02:15:15.078Z,90.48
2018-02-18T02:16:15.089Z,90.47
2018-02-18T02:17:15.086Z,90.29
2018-02-18T02:18:15.095Z,90.44
2018-02-18T02:19:14.958Z,90.21
2018-02-18T02:20:14.956Z,90.42
2018-02-18T02:21:15.114Z,90.34
2018-02-18T02:22:15.120Z,90.52
2018-02-18T02:23:14.963Z,90.6
2018-02-18T02:24:14.959Z,90.71
2018-02-18T02:25:14.966Z,90.58
2018-02-18T02:26:14.979Z,90.28
2018-02-18T02:27:14.973Z,90.5
2018-02-18T02:28:15.007Z,90.53
2018-02-18T02:29:14.977Z,90.35
2018-02-18T02:30:14.986Z,90.59
2018-02-18T02:31:14.990Z,90.51
2018-02-18T02:32:14.996Z,90.28
2018-02-18T02:33:15.020Z,90.16
2018-02-18T02:34:15.000Z,90.16
2018-02-18T02:35:15.005Z,90.01
2018-02-18T02:36:15.010Z,89.95
2018-02-18T02:37:15.001Z,90.05
2018-02-18T02:38:15.298Z,89.99
2018-02-18T02:39:15.019Z,89.96
2018-02-18T02:40:15.018Z,89.8
2018-02-18T02:41:15.024Z,89.84
2018-02-18T02:42:15.005Z,90.1
2018-02-18T02:43:15.188Z,89.27
2018-02-18T02:44:15.022Z,89.44
2018-02-18T02:45:15.006Z,89.74
2018-02-18T02:46:15.018Z,89.63
2018-02-18T02:47:15.018Z,89.66
2018-02-18T02:48:15.039Z,89.8
2018-02-18T02:49:15.015Z,89.81
2018-02-18T02:50:15.020Z,89.87
2018-02-18T02:51:15.032Z,89.82
2018-02-18T02:52:15.031Z,89.74
2018-02-18T02:53:15.295Z,89.79
2018-02-18T02:54:15.033Z,89.5
2018-02-18T02:55:15.046Z,89.58
2018-02-18T02:56:15.047Z,89.6
2018-02-18T02:57:15.058Z,89.64
2018-02-18T02:58:15.069Z,89.75
2018-02-18T02:59:15.049Z,89.64
2018-02-18T03:00:15.054Z,89.52
2018-02-18T03:01:15.060Z,89.74
2018-02-18T03:02:15.071Z,89.59
2018-02-18T03:03:15.089Z,89.59
2018-02-18T03:04:15.086Z,89.64
2018-02-18T03:05:15.083Z,89.49
2018-02-18T03:06:15.087Z,89.3
2018-02-18T03:07:15.101Z,89.13
2018-02-18T03:08:15.125Z,89.13
2018-02-18T03:09:15.108Z,89.09
2018-02-18T03:10:15.117Z,89.18
2018-02-18T03:11:15.119Z,89.16
2018-02-18T03:12:15.133Z,89.4
2018-02-18T03:13:15.148Z,89.31
2018-02-18T03:14:15.154Z,89.38
2018-02-18T03:15:15.154Z,89.23
2018-02-18T03:16:15.137Z,89.41
2018-02-18T03:17:15.298Z,89.41
2018-02-18T03:18:15.325Z,89.5
2018-02-18T03:19:15.325Z,89.27
2018-02-18T03:20:15.307Z,88.94
2018-02-18T03:21:15.317Z,89.24
2018-02-18T03:22:15.318Z,89.29
2018-02-18T03:23:15.343Z,88.87
2018-02-18T03:24:15.330Z,89.3
2018-02-18T03:25:15.336Z,89.33
2018-02-18T03:26:15.340Z,89.56
2018-02-18T03:27:15.330Z,89.47
2018-02-18T03:28:15.351Z,89.15
2018-02-18T03:29:15.330Z,89.04
2018-02-18T03:30:15.334Z,89.27
2018-02-18T03:31:15.179Z,89.25
2018-02-18T03:32:15.336Z,89.08
2018-02-18T03:33:15.367Z,89.27
2018-02-18T03:34:15.376Z,89.34
2018-02-18T03:35:15.347Z,89.35
2018-02-18T03:36:15.347Z,89.25
2018-02-18T03:37:15.353Z,89.24
2018-02-18T03:38:15.353Z,89.26
2018-02-18T03:39:15.383Z,89.3
2018-02-18T03:40:15.228Z,89.29
2018-02-18T03:41:15.366Z,89.34
2018-02-18T03:42:15.393Z,89.25
2018-02-18T03:43:15.233Z,89.36
2018-02-18T03:44:15.385Z,89.3
2018-02-18T03:45:15.555Z,89.34
2018-02-18T03:46:15.236Z,88.77
2018-02-18T03:47:15.238Z,89.08
2018-02-18T03:48:15.238Z,89.36
2018-02-18T03:49:15.238Z,89.33
2018-02-18T03:50:15.260Z,89.18
2018-02-18T03:51:15.243Z,89.13
2018-02-18T03:52:15.251Z,89.26
2018-02-18T03:53:15.254Z,89.13
2018-02-18T03:54:15.257Z,89.24
2018-02-18T03:55:15.268Z,89.32
2018-02-18T03:56:15.382Z,89.09
2018-02-18T03:57:15.285Z,89.14
2018-02-18T03:58:15.277Z,89.1
2018-02-18T03:59:15.282Z,89.24
2018-02-18T04:00:15.288Z,89.22
2018-02-18T04:01:15.311Z,89.16
2018-02-18T04:02:15.376Z,89
2018-02-18T04:03:15.463Z,88.63
2018-02-18T04:04:15.296Z,88.86
2018-02-18T04:05:15.300Z,89.26
2018-02-18T04:06:15.311Z,88.99
2018-02-18T04:07:15.338Z,89.01
2018-02-18T04:08:15.343Z,89.28
2018-02-18T04:09:15.353Z,89.24
2018-02-18T04:10:15.337Z,89.4
2018-02-18T04:11:15.343Z,89.47
2018-02-18T04:12:15.352Z,89.4
2018-02-18T04:13:15.366Z,89.33
2018-02-18T04:14:15.374Z,89.3
2018-02-18T04:15:15.503Z,89.29
2018-02-18T04:16:15.368Z,89.31
2018-02-18T04:17:15.376Z,89.23
2018-02-18T04:18:15.383Z,89.2
2018-02-18T04:19:15.529Z,89.26
2018-02-18T04:20:15.414Z,89.23
2018-02-18T04:21:15.591Z,89.22
2018-02-18T04:22:15.412Z,89.25
2018-02-18T04:23:15.418Z,89.19
2018-02-18T04:24:15.424Z,89.23
2018-02-18T04:25:15.430Z,89.23
2018-02-18T04:26:15.434Z,89.3
2018-02-18T04:27:15.428Z,89.3
2018-02-18T04:28:15.436Z,89.11
2018-02-18T04:29:15.588Z,89.06
2018-02-18T04:30:15.596Z,88.87
2018-02-18T04:31:15.639Z,88.87
2018-02-18T04:32:15.603Z,89
2018-02-18T04:33:15.608Z,89.08
2018-02-18T04:34:15.614Z,89.07
2018-02-18T04:35:15.451Z,89.14
2018-02-18T04:36:15.625Z,88.7
2018-02-18T04:37:15.627Z,88.77
2018-02-18T04:38:15.637Z,88.79
2018-02-18T04:39:15.641Z,88.29
2018-02-18T04:40:15.638Z,88.75
2018-02-18T04:41:15.644Z,88.64
2018-02-18T04:42:15.704Z,88.22
2018-02-18T04:43:15.687Z,88.26
2018-02-18T04:44:15.644Z,88.76
2018-02-18T04:45:15.655Z,89.3
2018-02-18T04:46:15.662Z,89.53
2018-02-18T04:47:15.670Z,89.59
2018-02-18T04:48:15.526Z,89.23
2018-02-18T04:49:15.517Z,89.3
2018-02-18T04:50:15.509Z,89.23
2018-02-18T04:51:15.520Z,89.32
2018-02-18T04:52:15.674Z,89.41
2018-02-18T04:53:15.545Z,89.33
2018-02-18T04:54:15.536Z,89.3
2018-02-18T04:55:15.552Z,89.35
2018-02-18T04:56:15.541Z,89.32
2018-02-18T04:57:15.560Z,89.35
2018-02-18T04:58:15.561Z,89.42
2018-02-18T04:59:15.561Z,89
2018-02-18T05:00:15.581Z,88.85
2018-02-18T05:01:15.588Z,88.82
2018-02-18T05:02:15.578Z,89.03
2018-02-18T05:03:15.595Z,89.26
2018-02-18T05:04:15.596Z,89.27
2018-02-18T05:05:15.593Z,89.13
2018-02-18T05:06:15.593Z,89.23
2018-02-18T05:07:15.599Z,89.2
2018-02-18T05:08:15.612Z,89.16
2018-02-18T05:09:15.605Z,89.26
2018-02-18T05:10:15.615Z,89.42
2018-02-18T05:11:15.614Z,89.13
2018-02-18T05:12:15.627Z,89.82
2018-02-18T05:13:15.611Z,89.87
2018-02-18T05:14:15.605Z,90.44
2018-02-18T05:15:15.612Z,90.83
2018-02-18T05:16:15.607Z,90.71
2018-02-18T05:17:15.607Z,90.51
2018-02-18T05:18:15.614Z,90.24
2018-02-18T05:19:15.612Z,90.5
2018-02-18T05:20:15.618Z,90.66
2018-02-18T05:21:15.635Z,90.65
2018-02-18T05:22:15.632Z,90.69
2018-02-18T05:23:15.643Z,90.74
2018-02-18T05:24:15.651Z,91
2018-02-18T05:25:15.652Z,91.68
2018-02-18T05:26:15.661Z,92.22
2018-02-18T05:27:15.666Z,92.51
2018-02-18T05:28:15.672Z,92.7
2018-02-18T05:29:15.690Z,92.89
2018-02-18T05:30:15.684Z,92.93
2018-02-18T05:31:15.704Z,93.05
2018-02-18T05:32:15.686Z,93.1
2018-02-18T05:33:15.686Z,93.42
2018-02-18T05:34:15.697Z,93.27
2018-02-18T05:35:15.704Z,93.55
2018-02-18T05:36:15.725Z,93.59
2018-02-18T05:37:15.738Z,93.26
2018-02-18T05:38:15.695Z,92.76
2018-02-18T05:39:15.702Z,93.22
2018-02-18T05:40:15.867Z,93.21
2018-02-18T05:41:15.861Z,93.2
2018-02-18T05:42:15.878Z,92.92
2018-02-18T05:43:15.876Z,92.71
2018-02-18T05:44:15.884Z,93.02
2018-02-18T05:45:15.891Z,92.76
2018-02-18T05:46:15.901Z,92.91
2018-02-18T05:47:15.915Z,92.94
2018-02-18T05:48:15.898Z,92.65
2018-02-18T05:49:15.904Z,92.76
2018-02-18T05:50:15.911Z,92.76
2018-02-18T05:51:15.908Z,92.81
2018-02-18T05:52:15.941Z,92.77
2018-02-18T05:53:15.930Z,92.78
2018-02-18T05:54:15.924Z,92.79
2018-02-18T05:55:15.932Z,92.58
2018-02-18T05:56:15.933Z,92.07
2018-02-18T05:57:15.982Z,91.41
2018-02-18T05:58:15.779Z,92.16
2018-02-18T05:59:15.787Z,92.38
2018-02-18T06:00:15.794Z,91.99
2018-02-18T06:01:15.802Z,91.6
2018-02-18T06:02:15.826Z,91.65
2018-02-18T06:03:15.805Z,91.99
2018-02-18T06:04:15.818Z,91.86
2018-02-18T06:05:15.809Z,91.71
2018-02-18T06:06:15.816Z,91.55
2018-02-18T06:07:15.825Z,91.62
2018-02-18T06:08:15.831Z,91.71
2018-02-18T06:09:15.824Z,91.65
2018-02-18T06:10:15.846Z,91.7
2018-02-18T06:11:15.843Z,91.52
2018-02-18T06:12:15.854Z,91.29
2018-02-18T06:13:15.851Z,91.29
2018-02-18T06:14:15.855Z,91.43
2018-02-18T06:15:15.868Z,91.43
2018-02-18T06:16:15.857Z,91.37
2018-02-18T06:17:15.906Z,91.34
2018-02-18T06:18:15.871Z,91.3
2018-02-18T06:19:15.877Z,91.24
2018-02-18T06:20:15.879Z,91.12
2018-02-18T06:21:15.874Z,91.13
2018-02-18T06:22:15.898Z,91.12
2018-02-18T06:23:15.891Z,91.12
2018-02-18T06:24:15.873Z,91.11
2018-02-18T06:25:15.877Z,91.15
2018-02-18T06:26:15.883Z,91.15
2018-02-18T06:27:15.954Z,91.08
2018-02-18T06:28:15.905Z,91.08
2018-02-18T06:29:15.905Z,91.11
2018-02-18T06:30:15.906Z,90.97
2018-02-18T06:31:15.914Z,90.91
2018-02-18T06:32:15.957Z,90.91
2018-02-18T06:33:15.920Z,90.83
2018-02-18T06:34:15.944Z,90.78
2018-02-18T06:35:15.924Z,90.75
2018-02-18T06:36:15.924Z,90.74
2018-02-18T06:37:15.930Z,90.5
2018-02-18T06:38:15.976Z,90.58
2018-02-18T06:39:15.953Z,90.72
2018-02-18T06:40:15.946Z,90.55
2018-02-18T06:41:15.953Z,90.59
2018-02-18T06:42:15.955Z,90.81
2018-02-18T06:43:16.123Z,90.72
2018-02-18T06:44:16.145Z,90.84
2018-02-18T06:45:15.965Z,90.83
2018-02-18T06:46:15.967Z,90.69
2018-02-18T06:47:15.966Z,90.66
2018-02-18T06:48:15.969Z,90.64
2018-02-18T06:49:15.978Z,90.46
2018-02-18T06:50:15.986Z,90.49
2018-02-18T06:51:16.006Z,90.43
2018-02-18T06:52:16.190Z,90.46
2018-02-18T06:53:16.159Z,90.49
2018-02-18T06:54:16.174Z,90.33
2018-02-18T06:55:16.002Z,90.27
2018-02-18T06:56:16.162Z,90.37
2018-02-18T06:57:16.174Z,90.31
2018-02-18T06:58:16.165Z,90.24
2018-02-18T06:59:16.174Z,90.27
2018-02-18T07:00:16.184Z,90.16
2018-02-18T07:01:16.181Z,90.2
2018-02-18T07:02:16.219Z,89.25
2018-02-18T07:03:16.033Z,89.47
2018-02-18T07:04:16.189Z,89.6
2018-02-18T07:05:16.194Z,89.86
2018-02-18T07:06:16.195Z,90.01
2018-02-18T07:07:16.203Z,89.45
2018-02-18T07:08:16.219Z,89.11
2018-02-18T07:09:16.208Z,89.32
2018-02-18T07:10:16.063Z,89.74
2018-02-18T07:11:16.061Z,89.71
2018-02-18T07:12:16.089Z,89.72
2018-02-18T07:13:16.067Z,90.04
2018-02-18T07:14:16.072Z,90.07
2018-02-18T07:15:16.087Z,90.16
2018-02-18T07:16:16.078Z,90.36
2018-02-18T07:17:16.102Z,90.44
2018-02-18T07:18:16.087Z,90.36
2018-02-18T07:19:16.207Z,90.51
2018-02-18T07:20:16.090Z,90.22
2018-02-18T07:21:16.090Z,90.18
2018-02-18T07:22:16.094Z,90.24
2018-02-18T07:23:16.109Z,90.42
2018-02-18T07:24:16.103Z,90.98
2018-02-18T07:25:16.099Z,90.85
2018-02-18T07:26:16.103Z,90.41
2018-02-18T07:27:16.114Z,90.34
2018-02-18T07:28:16.587Z,90.4
2018-02-18T07:29:16.267Z,90.7
2018-02-18T07:30:16.131Z,90.84
2018-02-18T07:31:16.127Z,90.57
2018-02-18T07:32:16.133Z,90.47
2018-02-18T07:33:16.156Z,90.42
2018-02-18T07:34:16.136Z,90.54
2018-02-18T07:35:16.136Z,90.55
2018-02-18T07:36:16.138Z,90.75
2018-02-18T07:37:16.153Z,90.74
2018-02-18T07:38:16.156Z,90.7
2018-02-18T07:39:16.153Z,90.96
2018-02-18T07:40:16.151Z,90.9
2018-02-18T07:41:16.211Z,90.88
2018-02-18T07:42:16.301Z,91.04
2018-02-18T07:43:16.172Z,91.04
2018-02-18T07:44:16.181Z,90.85
2018-02-18T07:45:16.344Z,91.21
2018-02-18T07:46:16.195Z,91.02
2018-02-18T07:47:16.219Z,91.06
2018-02-18T07:48:16.464Z,91.26
2018-02-18T07:49:16.206Z,91.22
2018-02-18T07:50:16.286Z,91.53
2018-02-18T07:51:16.206Z,91.85
2018-02-18T07:52:16.213Z,91.85
2018-02-18T07:53:16.209Z,91.89
2018-02-18T07:54:16.211Z,91.54
2018-02-18T07:55:16.211Z,91.52
2018-02-18T07:56:16.217Z,91.84
2018-02-18T07:57:16.222Z,91.85
2018-02-18T07:58:16.249Z,92.33
2018-02-18T07:59:16.235Z,92.73
2018-02-18T08:00:16.240Z,92.53
2018-02-18T08:01:16.251Z,92.75
2018-02-18T08:02:16.241Z,92.66
2018-02-18T08:03:16.413Z,92.7
2018-02-18T08:04:16.394Z,92.78
2018-02-18T08:05:16.397Z,92.72
2018-02-18T08:06:16.439Z,92.86
2018-02-18T08:07:16.408Z,93.28
2018-02-18T08:08:16.422Z,93.29
2018-02-18T08:09:16.450Z,93.15
2018-02-18T08:10:16.425Z,93.26
2018-02-18T08:11:16.452Z,93.32
2018-02-18T08:12:16.438Z,93.72
2018-02-18T08:13:16.443Z,93.53
2018-02-18T08:14:16.465Z,93.63
2018-02-18T08:15:16.452Z,93.66
2018-02-18T08:16:16.298Z,93.46
2018-02-18T08:17:16.454Z,93.27
2018-02-18T08:18:16.454Z,93.24
2018-02-18T08:19:16.477Z,93.46
2018-02-18T08:20:16.453Z,93.38
2018-02-18T08:21:16.302Z,93.84
2018-02-18T08:22:16.303Z,93.63
2018-02-18T08:23:16.306Z,92.69
2018-02-18T08:24:16.309Z,92.89
2018-02-18T08:25:16.311Z,92.92
2018-02-18T08:26:16.319Z,93.14
2018-02-18T08:27:16.317Z,93.21
2018-02-18T08:28:16.324Z,93.35
2018-02-18T08:29:16.319Z,92.96
2018-02-18T08:30:16.318Z,93.71
2018-02-18T08:31:16.334Z,93.75
2018-02-18T08:32:16.328Z,93.71
2018-02-18T08:33:16.330Z,93.48
2018-02-18T08:34:16.338Z,93.67
2018-02-18T08:35:16.589Z,93.95
2018-02-18T08:36:16.364Z,93.67
2018-02-18T08:37:16.625Z,93.46
2018-02-18T08:38:16.347Z,93.45
2018-02-18T08:39:16.374Z,93.38
2018-02-18T08:40:16.357Z,93.46
2018-02-18T08:41:16.388Z,93.12
2018-02-18T08:42:16.352Z,92.7
2018-02-18T08:43:16.357Z,92.73
2018-02-18T08:44:16.481Z,92.58
2018-02-18T08:45:16.392Z,92.49
2018-02-18T08:46:16.368Z,92.83
2018-02-18T08:47:16.435Z,92.96
2018-02-18T08:48:16.378Z,92.83
2018-02-18T08:49:16.370Z,92.79
2018-02-18T08:50:16.378Z,92.46
2018-02-18T08:51:16.536Z,92.56
2018-02-18T08:52:16.536Z,92.51
2018-02-18T08:53:16.387Z,92.56
2018-02-18T08:54:16.389Z,92.71
2018-02-18T08:55:16.381Z,92.05
2018-02-18T08:56:16.385Z,91.83
2018-02-18T08:57:16.394Z,91.91
2018-02-18T08:58:16.399Z,92.37
2018-02-18T08:59:16.400Z,92.03
2018-02-18T09:00:16.415Z,92.12
2018-02-18T09:01:16.416Z,91.72
2018-02-18T09:02:16.423Z,91.67
2018-02-18T09:03:16.434Z,91.88
2018-02-18T09:04:16.540Z,92.13
2018-02-18T09:05:16.437Z,91.56
2018-02-18T09:06:16.660Z,91.26
2018-02-18T09:07:16.462Z,91.83
2018-02-18T09:08:16.674Z,91.92
2018-02-18T09:10:16.483Z,92.25
2018-02-18T09:11:16.484Z,92.3
2018-02-18T09:12:16.490Z,92.24
2018-02-18T09:13:16.503Z,92.15
2018-02-18T09:14:16.833Z,91.82
2018-02-18T09:15:16.716Z,91.88
2018-02-18T09:16:16.740Z,91.66
2018-02-18T09:17:16.733Z,92.02
2018-02-18T09:18:16.740Z,92.35
2018-02-18T09:19:16.745Z,92.29
2018-02-18T09:20:16.754Z,92.72
2018-02-18T09:21:16.809Z,92.73
2018-02-18T09:22:16.698Z,92.66
2018-02-18T09:23:16.685Z,92.26
2018-02-18T09:24:16.785Z,92.59
2018-02-18T09:25:16.698Z,92.15
2018-02-18T09:26:16.804Z,91.91
2018-02-18T09:27:16.813Z,92.02
2018-02-18T09:28:16.809Z,91.81
2018-02-18T09:29:16.707Z,92.33
2018-02-18T09:30:16.827Z,91.96
2018-02-18T09:31:16.734Z,91
2018-02-18T09:32:16.751Z,90.86
2018-02-18T09:33:16.720Z,91.24
2018-02-18T09:34:16.727Z,91.12
2018-02-18T09:35:16.763Z,91.3
2018-02-18T09:36:16.757Z,91.07
2018-02-18T09:37:16.765Z,91.45
2018-02-18T09:38:16.770Z,91.46
2018-02-18T09:39:16.587Z,91.54
2018-02-18T09:40:16.585Z,90.77
2018-02-18T09:41:16.584Z,90.69
2018-02-18T09:42:16.586Z,90.47
2018-02-18T09:43:16.584Z,90.7
2018-02-18T09:44:16.615Z,90.62
2018-02-18T09:45:16.586Z,90.88
2018-02-18T09:46:16.593Z,91.19
2018-02-18T09:47:16.595Z,90.98
2018-02-18T09:48:16.597Z,90.85
2018-02-18T09:49:16.651Z,90.21
2018-02-18T09:50:16.606Z,90.14
2018-02-18T09:51:16.616Z,90.77
2018-02-18T09:52:16.672Z,90.36
2018-02-18T09:53:16.625Z,90.56
2018-02-18T09:54:16.685Z,90.77
2018-02-18T09:55:16.627Z,90.79
2018-02-18T09:56:16.625Z,90.46
2018-02-18T09:57:16.630Z,90.67
2018-02-18T09:58:16.714Z,89.82
2018-02-18T09:59:16.660Z,90.12
2018-02-18T10:00:16.646Z,90.38
2018-02-18T10:01:16.643Z,90.56
2018-02-18T10:02:16.639Z,90.42
2018-02-18T10:03:16.643Z,90.22
2018-02-18T10:04:16.757Z,90
2018-02-18T10:05:16.766Z,89.7
2018-02-18T10:06:16.668Z,89.93
2018-02-18T10:07:16.657Z,90.37
2018-02-18T10:08:16.703Z,89.79
2018-02-18T10:09:16.659Z,88.89
2018-02-18T10:10:16.734Z,89.17
2018-02-18T10:11:16.705Z,88.69
2018-02-18T10:12:16.702Z,89.12
2018-02-18T10:13:16.681Z,89.07
2018-02-18T10:14:16.721Z,89.31
2018-02-18T10:15:16.683Z,89.13
2018-02-18T10:16:16.669Z,89.05
2018-02-18T10:17:16.665Z,89.43
2018-02-18T10:18:16.665Z,88.16
2018-02-18T10:19:16.665Z,88.12
2018-02-18T10:20:16.672Z,88.96
2018-02-18T10:21:16.770Z,88.54
2018-02-18T10:22:16.767Z,88.29
2018-02-18T10:23:16.778Z,89.28
2018-02-18T10:24:16.789Z,87.94
2018-02-18T10:25:16.902Z,87.88
2018-02-18T10:26:16.693Z,88.07
2018-02-18T10:27:16.909Z,87.81
2018-02-18T10:28:16.868Z,87.34
2018-02-18T10:29:17.141Z,87.2
2018-02-18T10:30:16.882Z,87.83
2018-02-18T10:31:16.887Z,87.43
2018-02-18T10:32:16.738Z,87.68
2018-02-18T10:33:16.956Z,87.37
2018-02-18T10:34:16.956Z,87.29
2018-02-18T10:35:16.901Z,87.17
2018-02-18T10:36:16.772Z,86.75
2018-02-18T10:37:16.802Z,86.88
2018-02-18T10:38:16.919Z,87.42
2018-02-18T10:39:16.791Z,87.54
2018-02-18T10:40:16.935Z,87.75
2018-02-18T10:41:16.783Z,87.48
2018-02-18T10:42:16.926Z,87.34
2018-02-18T10:43:16.934Z,87.88
2018-02-18T10:44:16.964Z,87.56
2018-02-18T10:45:16.832Z,87.46
2018-02-18T10:46:16.947Z,87.16
2018-02-18T10:47:16.947Z,86.47
2018-02-18T10:48:17.059Z,86.17
2018-02-18T10:49:16.946Z,86.84
2018-02-18T10:50:16.975Z,87.2
2018-02-18T10:51:16.801Z,86.96
2018-02-18T10:52:16.807Z,86.6
2018-02-18T10:53:16.809Z,86.65
2018-02-18T10:54:17.013Z,87.25
2018-02-18T10:55:16.965Z,86.69
2018-02-18T10:56:16.962Z,86.77
2018-02-18T10:57:16.973Z,86.55
2018-02-18T10:58:16.818Z,86.05
2018-02-18T10:59:16.828Z,85.87
2018-02-18T11:00:16.981Z,86.73
2018-02-18T11:01:17.003Z,87.37
2018-02-18T11:02:16.831Z,86.52
2018-02-18T11:03:16.954Z,86.71
2018-02-18T11:04:16.845Z,86.13
2018-02-18T11:05:16.848Z,85.89
2018-02-18T11:06:16.856Z,86.02
2018-02-18T11:07:16.861Z,86.05
2018-02-18T11:08:16.860Z,85.11
2018-02-18T11:09:16.863Z,85.29
2018-02-18T11:10:16.873Z,86.22
2018-02-18T11:11:16.855Z,85.49
2018-02-18T11:12:16.869Z,85.23
2018-02-18T11:13:16.881Z,85.74
2018-02-18T11:14:16.864Z,85.63
2018-02-18T11:15:16.862Z,85.54
2018-02-18T11:16:16.869Z,85.18
2018-02-18T11:17:16.883Z,85
2018-02-18T11:18:16.958Z,85.04
2018-02-18T11:19:16.899Z,84.84
2018-02-18T11:20:16.895Z,83.83
2018-02-18T11:21:16.925Z,84.04
2018-02-18T11:22:16.993Z,84.52
2018-02-18T11:23:16.940Z,84.33
2018-02-18T11:24:16.993Z,84.08
2018-02-18T11:25:16.923Z,83.57
2018-02-18T11:26:16.929Z,83.82
2018-02-18T11:27:16.935Z,82.91
2018-02-18T11:28:16.968Z,83.55
2018-02-18T11:29:16.930Z,82.6
2018-02-18T11:30:17.105Z,82.65
2018-02-18T11:31:16.939Z,82.52
2018-02-18T11:32:16.945Z,82.47
2018-02-18T11:33:17.062Z,82.85
2018-02-18T11:34:16.955Z,82.76
2018-02-18T11:35:16.969Z,82.63
2018-02-18T11:36:17.095Z,82.06
2018-02-18T11:37:16.981Z,81.92
2018-02-18T11:38:17.159Z,80.81
2018-02-18T11:39:17.144Z,80.53
2018-02-18T11:40:17.142Z,81.7
2018-02-18T11:41:17.161Z,81.58
2018-02-18T11:42:17.128Z,81.2
2018-02-18T11:43:16.974Z,81.35
2018-02-18T11:44:17.139Z,80.85
2018-02-18T11:45:17.145Z,80.91
2018-02-18T11:46:17.175Z,80.8
2018-02-18T11:47:17.149Z,81.76
2018-02-18T11:48:17.157Z,81.71
2018-02-18T11:49:17.002Z,81.25
2018-02-18T11:50:16.997Z,79.97
2018-02-18T11:51:17.023Z,79.64
2018-02-18T11:52:16.997Z,78.96
2018-02-18T11:53:17.158Z,79.68
2018-02-18T11:54:17.209Z,79.65
2018-02-18T11:55:17.178Z,79.91
2018-02-18T11:56:17.017Z,79.45
2018-02-18T11:57:17.185Z,78.59
2018-02-18T11:58:17.184Z,78.6
2018-02-18T11:59:17.044Z,79.09
2018-02-18T12:00:17.267Z,78.31
2018-02-18T12:01:17.252Z,77.43
2018-02-18T12:02:17.040Z,77.55
2018-02-18T12:03:17.269Z,78.25
2018-02-18T12:04:17.256Z,78.06
2018-02-18T12:05:17.051Z,76.9
2018-02-18T12:06:17.104Z,78.89
2018-02-18T12:07:17.049Z,79.1
2018-02-18T12:08:17.054Z,77.71
2018-02-18T12:09:17.320Z,78.16
2018-02-18T12:10:17.225Z,78.33
2018-02-18T12:11:17.069Z,76.77
2018-02-18T12:12:17.073Z,76.78
2018-02-18T12:13:17.077Z,75.88
2018-02-18T12:14:17.231Z,76.23
2018-02-18T12:15:17.086Z,76.87
2018-02-18T12:16:17.251Z,75.8
2018-02-18T12:17:17.077Z,75.15
2018-02-18T12:18:17.099Z,76.05
2018-02-18T12:19:17.169Z,75.66
2018-02-18T12:20:17.119Z,75.9
2018-02-18T12:21:17.089Z,76.26
2018-02-18T12:22:17.095Z,75.42
2018-02-18T12:23:17.096Z,76.07
2018-02-18T12:24:17.306Z,75.06
2018-02-18T12:25:17.269Z,75.19
2018-02-18T12:26:17.118Z,75.3
2018-02-18T12:27:17.298Z,75.04
2018-02-18T12:28:17.122Z,74.33
2018-02-18T12:29:17.288Z,74.79
2018-02-18T12:30:17.349Z,75.24
2018-02-18T12:31:17.140Z,75.26
2018-02-18T12:32:17.295Z,74.62
2018-02-18T12:33:17.388Z,74.05
2018-02-18T12:34:17.308Z,74.97
2018-02-18T12:35:17.146Z,74.75
2018-02-18T12:36:17.195Z,74.67
2018-02-18T12:37:17.307Z,74.91
2018-02-18T12:38:17.312Z,74.25
2018-02-18T12:39:17.178Z,74.56
2018-02-18T12:40:17.180Z,74.21
2018-02-18T12:41:17.187Z,75.11
2018-02-18T12:42:17.190Z,74.58
2018-02-18T12:43:17.173Z,75.82
2018-02-18T12:44:17.172Z,73.36
2018-02-18T12:45:17.179Z,72.82
2018-02-18T12:46:17.208Z,74.03
2018-02-18T12:47:17.369Z,73.41
2018-02-18T12:48:17.376Z,72.37
2018-02-18T12:49:17.374Z,73
2018-02-18T12:50:17.365Z,72.64
2018-02-18T12:51:17.497Z,72.7
2018-02-18T12:52:19.542Z,72.71
2018-02-18T12:53:17.372Z,72.11
2018-02-18T12:54:17.375Z,71.5
2018-02-18T12:55:17.381Z,73.51
2018-02-18T12:56:17.403Z,73.2
2018-02-18T12:57:17.397Z,73.72